Time;durP1;ratioP1;P1;durP2;ratioP2;P2;SDS_P1;SDS_P2;PMS_P1;PMS_P2;Temp;Humidity;BMP_temperature;BMP_pressure;BME280_temperature;BME280_humidity;BME280_pressure;Samples;Min_cycle;Max_cycle;Signal;HPM_P1;HPM_P2
2022/12/15 00:40:03;;;;;;;;;;;;;;;-9.48;100.00;100254.06;5061816;28;20024;-59
2022/12/15 00:42:28;;;;;;;;;;;;;;;-9.50;100.00;100245.59;5066364;28;19924;-59
2022/12/15 00:44:54;;;;;;;;;;;;;;;-9.53;100.00;100253.44;5065617;28;20097;-59
2022/12/15 00:47:19;;;;;;;;;;;;;;;-9.53;100.00;100256.81;5063125;28;20023;-59
2022/12/15 01:22:35;;;;;;;;;;;;;;;-9.78;100.00;100267.34;5062316;28;19930;-58
2022/12/15 01:25:00;;;;;;;;;;;;;;;-9.76;100.00;100272.41;5064680;28;19994;-59
2022/12/15 01:27:25;;;;;;;;;;;;;;;-9.73;100.00;100274.84;5063325;28;20353;-59
2022/12/15 01:29:51;;;;;;;;;;;;;;;-9.76;100.00;100277.53;5064718;28;20320;-59
2022/12/15 01:32:16;;;;;;;;;;;;;;;-9.81;100.00;100270.03;5061976;28;20416;-59
2022/12/15 01:34:41;;;;;;;;;;;;;;;-9.87;100.00;100278.84;5064597;28;20026;-59
2022/12/15 01:37:06;;;;;;;;;;;;;;;-9.91;100.00;100274.75;5057939;28;19928;-59
2022/12/15 01:40:43;;;;;;;;;;;;;;;-9.91;100.00;100285.03;5063551;28;20032;-59
2022/12/15 01:42:17;;;;;;;;;;;;;;;-9.89;100.00;100290.88;5063842;28;20392;-58
2022/12/15 01:44:43;;;;;;;;;;;;;;;-9.90;100.00;100293.53;5062131;28;19950;-59
2022/12/15 01:47:11;;;;;;;;;;;;;;;-9.92;100.00;100285.91;5064150;28;20394;-59
2022/12/15 01:49:37;;;;;;;;;;;;;;;-9.92;100.00;100285.91;5061514;28;19924;-59
2022/12/15 01:52:04;;;;;;;;;;;;;;;-9.94;100.00;100292.00;5060969;28;19951;-59
2022/12/15 01:54:36;;;;;;;;;;;;;;;-10.00;100.00;100289.69;5064177;28;19925;-59
2022/12/15 01:57:03;;;;;;;;;;;;;;;-10.05;100.00;100291.63;5065372;28;20308;-59
2022/12/15 01:59:31;;;;;;;;;;;;;;;-10.06;100.00;100293.38;5064406;28;19936;-59
2022/12/15 02:01:57;;;;;;;;;;;;;;;-10.04;100.00;100294.13;5059165;28;20442;-59
2022/12/15 02:04:23;;;;;;;;;;;;;;;-10.05;100.00;100291.63;5062075;28;19946;-59
2022/12/15 02:06:49;;;;;;;;;;;;;;;-10.05;100.00;100287.31;5060274;28;20397;-59
2022/12/15 02:09:15;;;;;;;;;;;;;;;-10.04;100.00;100291.56;5064713;28;19973;-59
2022/12/15 02:11:40;;;;;;;;;;;;;;;-10.06;100.00;100284.84;5057915;28;19928;-59
2022/12/15 02:14:07;;;;;;;;;;;;;;;-10.13;100.00;100294.50;5063000;28;19928;-59
2022/12/15 02:16:44;;;;;;;;;;;;;;;-10.18;100.00;100299.00;5060505;28;19927;-60
2022/12/15 02:19:15;;;;;;;;;;;;;;;-10.16;100.00;100304.91;5056325;28;20483;-59
2022/12/15 02:21:40;;;;;;;;;;;;;;;-10.11;100.00;100298.69;5056585;28;19928;-57
2022/12/15 02:24:11;;;;;;;;;;;;;;;-10.04;100.00;100298.41;5060480;28;19973;-59
2022/12/15 02:26:39;;;;;;;;;;;;;;;-10.07;100.00;100304.50;5059809;28;20276;-59
2022/12/15 02:29:05;;;;;;;;;;;;;;;-10.13;100.00;100307.34;5063099;28;20026;-59
2022/12/15 02:31:48;;;;;;;;;;;;;;;-10.18;100.00;100301.56;5063581;28;20077;-60
2022/12/15 02:34:18;;;;;;;;;;;;;;;-10.19;100.00;100308.44;5059150;28;20020;-56
2022/12/15 02:36:46;;;;;;;;;;;;;;;-10.17;100.00;100310.91;5062371;28;20322;-59
2022/12/15 02:39:11;;;;;;;;;;;;;;;-10.20;100.00;100314.44;5060906;28;19931;-58
2022/12/15 02:41:41;;;;;;;;;;;;;;;-10.25;100.00;100303.53;5062156;28;20370;-59
2022/12/15 02:44:21;;;;;;;;;;;;;;;-10.29;100.00;100307.16;5060826;28;19921;-59
2022/12/15 02:46:49;;;;;;;;;;;;;;;-10.29;100.00;100306.34;5059507;28;19925;-60
2022/12/15 02:49:27;;;;;;;;;;;;;;;-10.32;100.00;100308.13;5060823;28;19974;-59
2022/12/15 02:52:10;;;;;;;;;;;;;;;-10.36;100.00;100306.56;5061115;28;19924;-59
2022/12/15 02:54:35;;;;;;;;;;;;;;;-10.35;100.00;100300.56;5062596;28;19924;-60
2022/12/15 02:57:16;;;;;;;;;;;;;;;-10.32;100.00;100305.56;5062404;28;19920;-57
2022/12/15 02:59:42;;;;;;;;;;;;;;;-10.29;100.00;100306.34;5062498;28;19991;-59
2022/12/15 03:02:08;;;;;;;;;;;;;;;-10.33;100.00;100296.19;5060477;28;19950;-58
2022/12/15 03:04:33;;;;;;;;;;;;;;;-10.36;100.00;100298.88;5062831;28;19966;-57
2022/12/15 03:07:04;;;;;;;;;;;;;;;-10.42;100.00;100301.69;5063657;28;19924;-59
2022/12/15 03:09:29;;;;;;;;;;;;;;;-10.44;100.00;100303.50;5075856;28;19928;-59
2022/12/15 03:11:54;;;;;;;;;;;;;;;-10.41;100.00;100313.63;5063321;28;19921;-59
2022/12/15 03:14:20;;;;;;;;;;;;;;;-10.43;100.00;100309.44;5060479;28;20294;-59
2022/12/15 03:16:45;;;;;;;;;;;;;;;-10.46;100.00;100307.84;5060243;28;21593;-59
2022/12/15 03:19:10;;;;;;;;;;;;;;;-10.46;100.00;100310.41;5063728;28;19962;-59
2022/12/15 03:21:35;;;;;;;;;;;;;;;-10.43;100.00;100312.84;5061730;28;19928;-59
2022/12/15 03:24:01;;;;;;;;;;;;;;;-10.42;100.00;100313.69;5062991;28;20462;-59
2022/12/15 03:26:26;;;;;;;;;;;;;;;-10.47;100.00;100316.44;5067444;28;19927;-59
2022/12/15 03:28:51;;;;;;;;;;;;;;;-10.51;100.00;100322.56;5063394;28;20381;-59
2022/12/15 03:31:17;;;;;;;;;;;;;;;-10.51;100.00;100317.44;5060792;28;19938;-59
2022/12/15 03:33:42;;;;;;;;;;;;;;;-10.49;100.00;100317.38;5063327;28;19943;-59
2022/12/15 03:36:07;;;;;;;;;;;;;;;-10.47;100.00;100321.56;5064628;28;20278;-60
2022/12/15 03:38:32;;;;;;;;;;;;;;;-10.55;100.00;100327.00;5070068;28;19924;-60
2022/12/15 03:40:58;;;;;;;;;;;;;;;-10.61;100.00;100324.69;5061526;28;20286;-60
2022/12/15 03:43:23;;;;;;;;;;;;;;;-10.64;100.00;100334.19;5066899;28;20439;-60
2022/12/15 03:45:48;;;;;;;;;;;;;;;-10.62;100.00;100320.44;5062065;28;19927;-59
2022/12/15 03:48:14;;;;;;;;;;;;;;;-10.57;100.00;100322.81;5065844;28;19935;-59
2022/12/15 03:50:39;;;;;;;;;;;;;;;-10.51;100.00;100317.44;5063299;28;19939;-59
2022/12/15 03:53:05;;;;;;;;;;;;;;;-10.52;100.00;100326.03;5066425;28;19931;-59
2022/12/15 03:55:30;;;;;;;;;;;;;;;-10.55;100.00;100318.47;5061823;28;19939;-60
2022/12/15 03:57:55;;;;;;;;;;;;;;;-10.57;100.00;100317.69;5067362;28;19924;-59
2022/12/15 04:00:21;;;;;;;;;;;;;;;-10.58;100.00;100323.72;5063575;28;19928;-59
2022/12/15 04:02:47;;;;;;;;;;;;;;;-10.62;100.00;100320.44;5065111;28;20401;-59
2022/12/15 04:05:33;;;;;;;;;;;;;;;-10.67;100.00;100322.34;5062059;28;19928;-59
2022/12/15 04:07:58;;;;;;;;;;;;;;;-10.64;100.00;100324.78;5066434;28;19931;-60
2022/12/15 04:10:25;;;;;;;;;;;;;;;-10.59;100.00;100322.03;5068075;28;19929;-60
2022/12/15 04:12:57;;;;;;;;;;;;;;;-10.59;100.00;100319.47;5067024;28;19924;-59
2022/12/15 04:15:22;;;;;;;;;;;;;;;-10.61;100.00;100323.81;5063649;28;19970;-60
2022/12/15 04:17:47;;;;;;;;;;;;;;;-10.63;100.00;100329.03;5069410;28;20370;-59
2022/12/15 04:20:13;;;;;;;;;;;;;;;-10.65;100.00;100329.97;5068595;28;20106;-60
2022/12/15 04:22:39;;;;;;;;;;;;;;;-10.65;100.00;100324.84;5063938;28;19920;-57
2022/12/15 05:33:26;;;;;;;;;;;;;;;-10.20;100.00;100336.69;5063115;28;19928;-60
2022/12/15 05:35:54;;;;;;;;;;;;;;;-10.19;100.00;100346.06;5065383;28;19920;-60
2022/12/15 05:38:19;;;;;;;;;;;;;;;-10.14;100.00;100344.16;5066573;28;19929;-60
2022/12/15 05:40:45;;;;;;;;;;;;;;;-10.13;100.00;100345.81;5064182;28;19925;-60
2022/12/15 05:43:10;;;;;;;;;;;;;;;-10.16;100.00;100346.75;5063068;28;19928;-60
2022/12/15 05:45:35;;;;;;;;;;;;;;;-10.15;100.00;100345.03;5066077;28;20309;-60
2022/12/15 05:48:01;;;;;;;;;;;;;;;-10.16;100.00;100345.94;5060957;28;19921;-60
2022/12/15 05:50:26;;;;;;;;;;;;;;;-10.20;100.00;100340.06;5060521;28;19936;-60
2022/12/15 05:52:51;;;;;;;;;;;;;;;-10.21;100.00;100342.72;5058905;28;19924;-60
2022/12/15 05:55:17;;;;;;;;;;;;;;;-10.25;100.00;100336.03;5063452;28;20060;-60
2022/12/15 05:57:43;;;;;;;;;;;;;;;-10.30;100.00;100337.97;5065009;28;19931;-60
2022/12/15 06:00:08;;;;;;;;;;;;;;;-10.34;100.00;100335.56;5065183;28;19956;-60
2022/12/15 06:02:34;;;;;;;;;;;;;;;-10.34;100.00;100334.72;5058536;28;19936;-59
2022/12/15 06:04:59;;;;;;;;;;;;;;;-10.38;100.00;100335.72;5058793;28;19920;-60
2022/12/15 06:07:24;;;;;;;;;;;;;;;-10.44;100.00;100330.84;5063029;28;19958;-61
2022/12/15 06:09:50;;;;;;;;;;;;;;;-10.51;100.00;100340.50;5059638;28;19924;-60
2022/12/15 06:12:15;;;;;;;;;;;;;;;-10.57;100.00;100340.75;5061082;28;20011;-60
2022/12/15 06:14:40;;;;;;;;;;;;;;;-10.61;100.00;100341.75;5065099;28;20370;-60
2022/12/15 06:17:06;;;;;;;;;;;;;;;-10.65;100.00;100340.22;5055128;28;20282;-60
2022/12/15 06:19:31;;;;;;;;;;;;;;;-10.68;100.00;100348.03;5065265;28;20452;-60
2022/12/15 06:21:56;;;;;;;;;;;;;;;-10.76;100.00;100348.34;5063013;28;20310;-60
2022/12/15 06:24:21;;;;;;;;;;;;;;;-10.81;100.00;100353.63;5063223;28;19920;-60
2022/12/15 06:26:47;;;;;;;;;;;;;;;-10.87;100.00;100350.47;5063931;28;19935;-60
2022/12/15 06:29:12;;;;;;;;;;;;;;;-10.85;100.00;100351.25;5064630;28;19920;-60
2022/12/15 06:31:38;;;;;;;;;;;;;;;-10.71;100.00;100354.13;5061542;28;19921;-61
2022/12/15 06:34:04;;;;;;;;;;;;;;;-10.59;100.00;100345.09;5065638;28;20069;-60
2022/12/15 06:36:29;;;;;;;;;;;;;;;-10.61;100.00;100349.44;5066949;28;19920;-60
2022/12/15 06:38:57;;;;;;;;;;;;;;;-10.65;100.00;100355.59;5068671;28;19928;-60
2022/12/15 06:41:22;;;;;;;;;;;;;;;-10.74;100.00;100348.25;5065307;28;20318;-60
2022/12/15 06:43:52;;;;;;;;;;;;;;;-10.76;100.00;100356.03;5069453;28;19924;-60
2022/12/15 06:46:17;;;;;;;;;;;;;;;-10.74;100.00;100353.38;5070246;28;19982;-60
2022/12/15 06:48:44;;;;;;;;;;;;;;;-10.71;100.00;100353.25;5067523;28;19924;-58
2022/12/15 06:51:10;;;;;;;;;;;;;;;-10.77;100.00;100357.72;5064813;28;19967;-60
2022/12/15 06:53:36;;;;;;;;;;;;;;;-10.87;100.00;100353.03;5066949;28;20111;-59
2022/12/15 06:56:03;;;;;;;;;;;;;;;-10.87;100.00;100353.84;5065141;28;19952;-60
2022/12/15 06:58:28;;;;;;;;;;;;;;;-10.92;100.00;100355.75;5061159;28;19924;-60
2022/12/15 07:00:54;;;;;;;;;;;;;;;-10.89;100.00;100365.91;5063088;28;19928;-60
2022/12/15 07:03:19;;;;;;;;;;;;;;;-10.94;100.00;100361.81;5061416;28;20007;-60
2022/12/15 07:05:45;;;;;;;;;;;;;;;-11.03;100.00;100366.41;5068802;28;19966;-61
2022/12/15 07:08:11;;;;;;;;;;;;;;;-11.11;100.00;100354.78;5064742;28;19928;-60
2022/12/15 07:10:37;;;;;;;;;;;;;;;-11.12;100.00;100360.81;5067190;28;19966;-59
2022/12/15 07:13:02;;;;;;;;;;;;;;;-11.07;100.00;100358.91;5063769;28;19929;-60
2022/12/15 07:15:28;;;;;;;;;;;;;;;-11.07;100.00;100359.75;5064073;28;19965;-61
2022/12/15 07:17:54;;;;;;;;;;;;;;;-11.09;100.00;100363.25;5055286;28;19925;-60
2022/12/15 07:20:20;;;;;;;;;;;;;;;-11.12;100.00;100361.63;5066325;28;19928;-60
2022/12/15 07:22:48;;;;;;;;;;;;;;;-11.12;100.00;100371.03;5057895;28;19927;-60
2022/12/15 07:25:14;;;;;;;;;;;;;;;-11.12;100.00;100368.50;5055981;28;19932;-60
2022/12/15 07:27:40;;;;;;;;;;;;;;;-11.20;100.00;100364.47;5056344;28;19954;-60
2022/12/15 07:30:06;;;;;;;;;;;;;;;-11.26;100.00;100363.84;5061086;28;20306;-60
2022/12/15 07:32:31;;;;;;;;;;;;;;;-11.33;100.00;100365.81;5064125;28;19920;-58
2022/12/15 07:34:57;;;;;;;;;;;;;;;-11.33;100.00;100365.81;5064753;28;20035;-60
2022/12/15 07:37:22;;;;;;;;;;;;;;;-11.32;100.00;100371.75;5062304;28;20560;-60
2022/12/15 07:39:47;;;;;;;;;;;;;;;-11.37;100.00;100379.59;5061539;28;20023;-60
2022/12/15 07:42:13;;;;;;;;;;;;;;;-11.41;100.00;100378.03;5068514;28;19920;-60
2022/12/15 07:44:38;;;;;;;;;;;;;;;-11.44;100.00;100388.38;5063249;28;20023;-60
2022/12/15 07:47:03;;;;;;;;;;;;;;;-11.42;100.00;100386.59;5068362;28;19994;-60
2022/12/15 07:49:29;;;;;;;;;;;;;;;-11.45;100.00;100390.09;5067707;28;20277;-60
2022/12/15 07:51:57;;;;;;;;;;;;;;;-11.44;100.00;100381.53;5072282;28;19928;-60
2022/12/15 07:54:22;;;;;;;;;;;;;;;-11.44;100.00;100383.25;5066297;28;20003;-60
2022/12/15 07:56:47;;;;;;;;;;;;;;;-11.46;100.00;100391.00;5062598;28;20015;-59
2022/12/15 07:59:13;;;;;;;;;;;;;;;-11.44;100.00;100383.25;5065634;28;20189;-60
2022/12/15 08:01:38;;;;;;;;;;;;;;;-11.47;100.00;100389.31;5062690;28;20311;-60
2022/12/15 08:04:03;;;;;;;;;;;;;;;-11.49;100.00;100395.38;5067167;28;19968;-60
2022/12/15 08:06:29;;;;;;;;;;;;;;;-11.53;100.00;100396.38;5066431;28;20554;-61
2022/12/15 08:08:54;;;;;;;;;;;;;;;-11.57;100.00;100389.69;5065875;28;19963;-60
2022/12/15 08:11:20;;;;;;;;;;;;;;;-11.59;100.00;100394.84;5065126;28;19925;-60
2022/12/15 08:13:46;;;;;;;;;;;;;;;-11.60;100.00;100394.91;5062486;28;19978;-60
2022/12/15 08:16:11;;;;;;;;;;;;;;;-11.60;100.00;100390.63;5065539;28;20399;-60
2022/12/15 08:18:37;;;;;;;;;;;;;;;-11.55;100.00;100398.16;5067116;28;19951;-60
2022/12/15 08:21:05;;;;;;;;;;;;;;;-11.48;100.00;100404.75;5066717;28;19924;-60
2022/12/15 08:23:31;;;;;;;;;;;;;;;-11.40;100.00;100405.31;5063876;28;20023;-59
2022/12/15 08:26:04;;;;;;;;;;;;;;;-11.37;100.00;100400.06;5071775;28;20007;-59
2022/12/15 08:28:31;;;;;;;;;;;;;;;-11.40;100.00;100392.50;5066668;28;19927;-60
2022/12/15 08:31:00;;;;;;;;;;;;;;;-11.38;100.00;100395.84;5064881;28;19974;-60
2022/12/15 08:33:26;;;;;;;;;;;;;;;-11.39;100.00;100401.00;5076567;28;19924;-60
2022/12/15 08:35:51;;;;;;;;;;;;;;;-11.40;100.00;100395.06;5071796;28;20067;-60
2022/12/15 08:38:16;;;;;;;;;;;;;;;-11.37;100.00;100394.94;5070843;28;19927;-60
2022/12/15 08:40:41;;;;;;;;;;;;;;;-11.32;100.00;100398.19;5069883;28;19920;-60
2022/12/15 08:43:07;;;;;;;;;;;;;;;-11.30;100.00;100403.25;5070324;28;20284;-60
2022/12/15 08:45:32;;;;;;;;;;;;;;;-11.29;100.00;100403.19;5071080;28;19923;-60
2022/12/15 08:47:57;;;;;;;;;;;;;;;-11.24;100.00;100403.03;5072176;28;20278;-61
2022/12/15 08:50:22;;;;;;;;;;;;;;;-11.17;100.00;100416.47;5070225;28;19920;-60
2022/12/15 08:52:47;;;;;;;;;;;;;;;-11.13;100.00;100418.00;5070379;28;20265;-60
2022/12/15 08:55:13;;;;;;;;;;;;;;;-11.15;100.00;100418.06;5071448;28;19932;-61
2022/12/15 08:57:39;;;;;;;;;;;;;;;-11.06;100.00;100411.78;5063291;28;20310;-60
2022/12/15 09:00:05;;;;;;;;;;;;;;;-11.02;100.00;100416.75;5071770;28;19920;-61
2022/12/15 09:02:31;;;;;;;;;;;;;;;-10.92;100.00;100419.78;5068739;28;19939;-60
2022/12/15 09:04:56;;;;;;;;;;;;;;;-10.84;100.00;100425.47;5069620;28;19971;-61
2022/12/15 09:07:21;;;;;;;;;;;;;;;-10.76;100.00;100433.72;5077220;28;19920;-61
2022/12/15 09:09:46;;;;;;;;;;;;;;;-10.70;100.00;100435.19;5073462;28;20021;-61
2022/12/15 09:12:12;;;;;;;;;;;;;;;-10.63;100.00;100433.25;5065728;28;19928;-61
2022/12/15 09:14:37;;;;;;;;;;;;;;;-10.58;100.00;100432.19;5071881;28;19920;-61
2022/12/15 09:17:02;;;;;;;;;;;;;;;-10.52;100.00;100435.41;5069334;28;20011;-61
2022/12/15 09:19:27;;;;;;;;;;;;;;;-10.45;100.00;100439.38;5032187;28;20006;-61
2022/12/15 09:21:53;;;;;;;;;;;;;;;-10.36;100.00;100439.06;5055104;28;20657;-61
2022/12/15 09:24:18;;;;;;;;;;;;;;;-10.19;100.00;100446.06;5058963;28;19950;-61
2022/12/15 09:26:43;;;;;;;;;;;;;;;-10.08;100.00;100451.59;5055839;28;20006;-62
2022/12/15 09:29:10;;;;;;;;;;;;;;;-9.76;100.00;100449.47;5057802;28;20057;-61
2022/12/15 09:31:36;;;;;;;;;;;;;;;-9.45;100.00;100454.16;5058844;28;20007;-62
2022/12/15 09:34:02;;;;;;;;;;;;;;;-9.19;100.00;100454.78;5059479;28;19924;-61
2022/12/15 09:36:29;;;;;;;;;;;;;;;-9.03;100.00;100454.06;5059256;28;19970;-62
2022/12/15 09:38:54;;;;;;;;;;;;;;;-8.91;100.00;100457.00;5058955;28;19929;-60
2022/12/15 09:41:24;;;;;;;;;;;;;;;-8.75;100.00;100457.16;5060461;28;20265;-62
2022/12/15 09:43:57;;;;;;;;;;;;;;;-8.68;100.00;100458.53;5057069;28;19936;-62
2022/12/15 09:46:29;;;;;;;;;;;;;;;-8.57;100.00;100466.59;5061464;28;19959;-62
2022/12/15 09:48:57;;;;;;;;;;;;;;;-8.44;100.00;100467.72;5059027;28;19928;-63
2022/12/15 09:51:28;;;;;;;;;;;;;;;-8.33;100.00;100469.78;5060050;28;20415;-62
2022/12/15 09:53:53;;;;;;;;;;;;;;;-8.28;100.00;100470.41;5059410;28;19929;-62
2022/12/15 09:56:22;;;;;;;;;;;;;;;-8.16;100.00;100472.41;5057033;28;19948;-62
2022/12/15 09:59:04;;;;;;;;;;;;;;;-8.01;100.00;100477.72;5058773;28;19980;-62
2022/12/15 10:01:56;;;;;;;;;;;;;;;-7.82;100.00;100483.66;5060231;28;19920;-62
2022/12/15 10:04:21;;;;;;;;;;;;;;;-7.64;100.00;100481.09;5044319;28;20190;-62
2022/12/15 10:06:54;;;;;;;;;;;;;;;-7.38;100.00;100475.50;5054901;28;20361;-62
2022/12/15 10:09:26;;;;;;;;;;;;;;;-7.17;100.00;100480.50;5059104;28;19935;-62
2022/12/15 10:12:03;;;;;;;;;;;;;;;-6.92;100.00;100486.03;5058455;28;20426;-62
2022/12/15 10:14:44;;;;;;;;;;;;;;;-6.73;100.00;100479.94;5058188;28;19920;-63
2022/12/15 10:17:15;;;;;;;;;;;;;;;-6.59;100.00;100490.34;5060889;28;19927;-62
2022/12/15 10:19:58;;;;;;;;;;;;;;;-6.45;100.00;100498.19;5058879;28;19928;-62
2022/12/15 10:22:25;;;;;;;;;;;;;;;-6.29;100.00;100492.22;5058540;28;19927;-63
2022/12/15 10:24:51;;;;;;;;;;;;;;;-6.16;100.00;100499.19;5055819;28;19932;-63
2022/12/15 10:27:29;;;;;;;;;;;;;;;-6.02;100.00;100497.59;5058937;28;20511;-63
2022/12/15 10:30:05;;;;;;;;;;;;;;;-5.89;100.00;100503.72;5057654;28;19928;-63
2022/12/15 10:32:47;;;;;;;;;;;;;;;-5.72;100.00;100502.78;5059612;28;20499;-63
2022/12/15 10:35:14;;;;;;;;;;;;;;;-5.59;100.00;100500.34;5058761;28;19928;-63
2022/12/15 10:37:40;;;;;;;;;;;;;;;-5.53;100.00;100507.75;5059853;28;19970;-64
2022/12/15 10:40:05;;;;;;;;;;;;;;;-5.46;100.00;100508.25;5059707;28;20441;-64
2022/12/15 10:42:31;;;;;;;;;;;;;;;-5.40;100.00;100498.38;5056894;28;19969;-64
2022/12/15 10:44:57;;;;;;;;;;;;;;;-5.29;100.00;100515.88;5059639;28;20282;-64
2022/12/15 10:47:27;;;;;;;;;;;;;;;-5.18;100.00;100515.25;5059677;28;20292;-65
2022/12/15 10:49:53;;;;;;;;;;;;;;;-5.06;100.00;100527.44;5054395;28;20266;-64
2022/12/15 10:52:26;;;;;;;;;;;;;;;-4.88;100.00;100512.59;5057367;28;20824;-65
2022/12/15 10:54:53;;;;;;;;;;;;;;;-4.79;100.00;100511.22;5055763;28;19924;-65
2022/12/15 10:57:20;;;;;;;;;;;;;;;-4.78;100.00;100503.34;5057887;28;19929;-66
2022/12/15 10:59:45;;;;;;;;;;;;;;;-4.68;100.00;100507.03;5056318;28;19975;-65
2022/12/15 11:02:25;;;;;;;;;;;;;;;-4.49;100.00;100511.97;5058262;28;20018;-65
2022/12/15 11:05:09;;;;;;;;;;;;;;;-4.24;100.00;100516.44;5055508;28;19950;-66
2022/12/15 11:07:40;;;;;;;;;;;;;;;-4.01;100.00;100507.22;5052047;28;20396;-66
2022/12/15 11:10:16;;;;;;;;;;;;;;;-3.92;100.00;100499.78;5054362;28;20019;-66
2022/12/15 11:12:50;;;;;;;;;;;;;;;-3.80;100.00;100491.25;5056150;28;19920;-66
2022/12/15 11:15:21;;;;;;;;;;;;;;;-3.59;100.00;100491.63;5062320;28;19928;-66
2022/12/15 11:17:50;;;;;;;;;;;;;;;-3.37;100.00;100483.28;5054815;28;19937;-66
2022/12/15 11:20:21;;;;;;;;;;;;;;;-3.24;100.00;100483.28;5060779;28;19932;-66
2022/12/15 11:22:56;;;;;;;;;;;;;;;-3.23;100.00;100487.53;5056825;28;19929;-66
2022/12/15 11:25:22;;;;;;;;;;;;;;;-3.13;100.00;100484.22;5060978;28;19929;-66
2022/12/15 11:27:49;;;;;;;;;;;;;;;-3.11;100.00;100481.53;5059231;28;19924;-66
2022/12/15 11:30:15;;;;;;;;;;;;;;;-2.95;100.00;100479.56;5060538;28;20015;-66
2022/12/15 11:32:43;;;;;;;;;;;;;;;-2.82;100.00;100478.72;5058812;28;19924;-66
2022/12/15 11:35:28;;;;;;;;;;;;;;;-2.84;100.00;100473.63;5060967;28;19931;-66
2022/12/15 11:38:11;;;;;;;;;;;;;;;-2.92;100.00;100471.59;5060620;28;19947;-66
2022/12/15 11:40:43;;;;;;;;;;;;;;;-2.96;100.00;100469.31;5062070;28;19928;-66
2022/12/15 11:43:20;;;;;;;;;;;;;;;-2.95;100.00;100466.59;5061054;28;19924;-67
2022/12/15 11:45:54;;;;;;;;;;;;;;;-2.94;100.00;100467.44;5061215;28;19929;-67
2022/12/15 11:48:21;;;;;;;;;;;;;;;-2.88;100.00;100465.25;5061296;28;19924;-67
2022/12/15 11:50:49;;;;;;;;;;;;;;;-2.81;100.00;100473.44;5061118;28;20007;-67
2022/12/15 11:53:22;;;;;;;;;;;;;;;-2.72;100.00;100475.41;5061074;28;20473;-67
2022/12/15 11:56:15;;;;;;;;;;;;;;;-2.67;100.00;100454.31;5060742;28;19978;-67
2022/12/15 11:58:52;;;;;;;;;;;;;;;-2.57;100.00;100455.34;5058318;28;20419;-66
2022/12/15 12:01:27;;;;;;;;;;;;;;;-2.49;100.00;100458.22;5058997;28;19982;-66
2022/12/15 12:03:52;;;;;;;;;;;;;;;-2.40;100.00;100456.75;5061733;28;19924;-66
2022/12/15 12:06:36;;;;;;;;;;;;;;;-2.38;100.00;100451.44;5055071;28;20402;-66
2022/12/15 12:09:10;;;;;;;;;;;;;;;-2.28;100.00;100455.06;5057419;28;19959;-66
2022/12/15 12:11:52;;;;;;;;;;;;;;;-2.27;100.00;100441.13;5058777;28;19920;-66
2022/12/15 12:14:41;;;;;;;;;;;;;;;-2.24;100.00;100439.16;5059627;28;19936;-66
2022/12/15 12:17:12;;;;;;;;;;;;;;;-2.15;100.00;100442.03;5047456;28;20133;-66
2022/12/15 12:19:56;;;;;;;;;;;;;;;-2.08;100.00;100428.47;5060479;28;20301;-66
2022/12/15 12:22:27;;;;;;;;;;;;;;;-1.97;100.00;100431.13;5061043;28;19959;-66
2022/12/15 12:25:14;;;;;;;;;;;;;;;-1.80;100.00;100429.06;5052162;28;19924;-67
2022/12/15 12:27:39;;;;;;;;;;;;;;;-1.65;100.00;100422.75;5060199;28;19974;-67
2022/12/15 12:30:10;;;;;;;;;;;;;;;-1.54;100.00;100422.75;5060726;28;19925;-68
2022/12/15 12:32:53;;;;;;;;;;;;;;;-1.43;100.00;100426.34;5062014;28;19920;-68
2022/12/15 12:35:22;;;;;;;;;;;;;;;-1.46;100.00;100422.19;5057667;28;20078;-68
2022/12/15 12:37:55;;;;;;;;;;;;;;;-1.29;100.00;100412.28;5061214;28;19925;-68
2022/12/15 12:40:23;;;;;;;;;;;;;;;-1.18;100.00;100410.53;5063274;28;20465;-68
2022/12/15 12:42:52;;;;;;;;;;;;;;;-1.10;100.00;100404.75;5060841;28;20078;-68
2022/12/15 12:45:18;;;;;;;;;;;;;;;-1.10;100.00;100402.97;5060035;28;20048;-68
2022/12/15 12:47:46;;;;;;;;;;;;;;;-1.03;100.00;100397.28;5060861;28;20374;-69
2022/12/15 12:50:19;;;;;;;;;;;;;;;-0.99;100.00;100396.09;5058455;28;20447;-69
2022/12/15 12:52:47;;;;;;;;;;;;;;;-0.95;100.00;100384.53;5059547;28;20435;-69
2022/12/15 12:55:12;;;;;;;;;;;;;;;-0.90;100.00;100374.59;5061094;28;19986;-69
2022/12/15 12:57:39;;;;;;;;;;;;;;;-0.93;100.00;100380.00;5059953;28;20374;-69
2022/12/15 13:00:07;;;;;;;;;;;;;;;-0.83;100.00;100383.53;5057868;28;19924;-69
2022/12/15 13:02:38;;;;;;;;;;;;;;;-0.84;100.00;100379.31;5056488;28;19920;-68
2022/12/15 13:05:22;;;;;;;;;;;;;;;-0.84;100.00;100376.69;5059735;28;20357;-68
2022/12/15 13:08:04;;;;;;;;;;;;;;;-0.82;100.00;100374.81;5057507;28;19936;-68
2022/12/15 13:10:30;;;;;;;;;;;;;;;-0.76;100.00;100370.88;5060723;28;19979;-68
2022/12/15 13:12:58;;;;;;;;;;;;;;;-0.73;100.00;100368.03;5058881;28;19959;-68
2022/12/15 13:15:26;;;;;;;;;;;;;;;-0.61;100.00;100366.25;5061608;28;19939;-68
2022/12/15 13:17:54;;;;;;;;;;;;;;;-0.69;100.00;100354.66;5059947;28;20301;-68
2022/12/15 13:20:21;;;;;;;;;;;;;;;-0.67;100.00;100363.19;5060527;28;20003;-68
2022/12/15 13:22:47;;;;;;;;;;;;;;;-0.62;100.00;100361.97;5060208;28;19963;-68
2022/12/15 13:25:30;;;;;;;;;;;;;;;-0.56;100.00;100358.91;5059437;28;20410;-68
2022/12/15 13:27:57;;;;;;;;;;;;;;;-0.64;100.00;100354.31;5061303;28;20340;-68
2022/12/15 13:30:22;;;;;;;;;;;;;;;-0.66;100.00;100354.41;5057686;28;19928;-69
2022/12/15 13:33:10;;;;;;;;;;;;;;;-0.47;100.00;100352.94;5059960;28;19928;-68
2022/12/15 13:35:36;;;;;;;;;;;;;;;-0.52;100.00;100360.28;5058600;28;20333;-67
2022/12/15 13:38:02;;;;;;;;;;;;;;;-0.62;100.00;100355.00;5059217;28;19928;-68
2022/12/15 13:40:33;;;;;;;;;;;;;;;-0.61;100.00;100350.63;5059376;28;19935;-68
2022/12/15 13:43:05;;;;;;;;;;;;;;;-0.57;100.00;100355.44;5059326;28;19932;-68
2022/12/15 13:45:38;;;;;;;;;;;;;;;-0.55;100.00;100350.94;5058013;28;20276;-67
2022/12/15 13:48:06;;;;;;;;;;;;;;;-0.58;100.00;100339.97;5057841;28;19931;-67
2022/12/15 13:50:38;;;;;;;;;;;;;;;-0.54;100.00;100337.00;5058720;28;19935;-67
2022/12/15 13:53:09;;;;;;;;;;;;;;;-0.59;100.00;100331.31;5059917;28;20385;-67
2022/12/15 13:55:38;;;;;;;;;;;;;;;-0.63;100.00;100335.13;5058520;28;19974;-66
2022/12/15 13:58:16;;;;;;;;;;;;;;;-0.54;100.00;100336.16;5056920;28;20448;-67
2022/12/15 14:00:50;;;;;;;;;;;;;;;-0.57;100.00;100337.22;5054495;28;19921;-66
2022/12/15 14:03:15;;;;;;;;;;;;;;;-0.54;100.00;100331.78;5059396;28;19933;-66
2022/12/15 14:05:46;;;;;;;;;;;;;;;-0.58;100.00;100335.56;5059458;28;19933;-67
2022/12/15 14:08:13;;;;;;;;;;;;;;;-0.64;100.00;100349.09;5059568;28;19973;-67
2022/12/15 14:10:43;;;;;;;;;;;;;;;-0.74;100.00;100342.97;5058546;28;19921;-66
2022/12/15 14:13:17;;;;;;;;;;;;;;;-0.78;100.00;100342.34;5057488;28;19928;-66
2022/12/15 14:15:44;;;;;;;;;;;;;;;-0.77;100.00;100335.41;5056501;28;20455;-66
2022/12/15 14:18:20;;;;;;;;;;;;;;;-0.70;100.00;100326.97;5059265;28;19962;-66
2022/12/15 14:20:46;;;;;;;;;;;;;;;-0.75;100.00;100330.88;5058152;28;21092;-66
2022/12/15 14:23:18;;;;;;;;;;;;;;;-0.85;100.00;100336.00;5056762;28;20007;-66
2022/12/15 14:25:51;;;;;;;;;;;;;;;-0.90;100.00;100325.13;5056156;28;20322;-66
2022/12/15 14:28:23;;;;;;;;;;;;;;;-0.92;100.00;100325.22;5058332;28;19928;-66
2022/12/15 14:30:49;;;;;;;;;;;;;;;-1.07;100.00;100326.44;5057707;28;19929;-66
2022/12/15 14:33:16;;;;;;;;;;;;;;;-1.18;100.00;100336.84;5058542;28;19943;-66
2022/12/15 14:35:43;;;;;;;;;;;;;;;-1.14;100.00;100341.69;5058860;28;19931;-66
2022/12/15 14:38:16;;;;;;;;;;;;;;;-1.09;100.00;100349.13;5053042;28;19928;-66
2022/12/15 14:40:43;;;;;;;;;;;;;;;-1.04;100.00;100359.19;5053670;28;20034;-66
2022/12/15 14:43:18;;;;;;;;;;;;;;;-1.18;100.00;100355.06;5056448;28;20067;-66
2022/12/15 14:45:43;;;;;;;;;;;;;;;-1.27;100.00;100358.38;5054858;28;19928;-66
2022/12/15 14:48:08;;;;;;;;;;;;;;;-1.22;100.00;100370.06;5053499;28;19978;-65